sensor_id;sensor_type;location;lat;lon;timestamp;P1;durP1;ratioP1;P2;durP2;ratioP2
48629;SDS011;34426;52.180;4.462;2022-09-09T00:00:13;18.25;;;5.85;;
48629;SDS011;34426;52.180;4.462;2022-09-09T00:05:14;11.43;;;5.78;;
48629;SDS011;34426;52.180;4.462;2022-09-09T00:07:47;12.52;;;5.60;;
48629;SDS011;34426;52.180;4.462;2022-09-09T00:10:19;12.57;;;5.72;;
48629;SDS011;34426;52.180;4.462;2022-09-09T00:12:53;12.45;;;5.90;;
48629;SDS011;34426;52.180;4.462;2022-09-09T00:15:25;15.45;;;6.60;;
48629;SDS011;34426;52.180;4.462;2022-09-09T00:17:58;14.57;;;6.38;;
48629;SDS011;34426;52.180;4.462;2022-09-09T00:20:35;19.05;;;7.60;;
48629;SDS011;34426;52.180;4.462;2022-09-09T00:23:10;13.13;;;7.47;;
48629;SDS011;34426;52.180;4.462;2022-09-09T00:25:49;12.88;;;6.40;;
48629;SDS011;34426;52.180;4.462;2022-09-09T00:28:25;17.63;;;7.72;;
48629;SDS011;34426;52.180;4.462;2022-09-09T00:30:53;17.58;;;7.40;;
48629;SDS011;34426;52.180;4.462;2022-09-09T00:33:25;16.23;;;6.93;;
48629;SDS011;34426;52.180;4.462;2022-09-09T00:35:57;14.20;;;7.38;;
48629;SDS011;34426;52.180;4.462;2022-09-09T00:38:26;19.25;;;8.55;;
48629;SDS011;34426;52.180;4.462;2022-09-09T00:41:03;16.25;;;6.93;;
48629;SDS011;34426;52.180;4.462;2022-09-09T00:43:37;15.35;;;8.40;;
48629;SDS011;34426;52.180;4.462;2022-09-09T00:49:09;17.38;;;7.97;;
48629;SDS011;34426;52.180;4.462;2022-09-09T00:51:47;19.45;;;8.63;;
48629;SDS011;34426;52.180;4.462;2022-09-09T00:54:27;19.08;;;9.68;;
48629;SDS011;34426;52.180;4.462;2022-09-09T00:57:10;19.20;;;10.18;;
48629;SDS011;34426;52.180;4.462;2022-09-09T00:59:47;17.63;;;9.90;;
48629;SDS011;34426;52.180;4.462;2022-09-09T01:02:19;17.55;;;12.32;;
48629;SDS011;34426;52.180;4.462;2022-09-09T01:04:53;20.75;;;12.15;;
48629;SDS011;34426;52.180;4.462;2022-09-09T01:07:24;21.92;;;12.25;;
48629;SDS011;34426;52.180;4.462;2022-09-09T01:09:52;19.63;;;13.98;;
48629;SDS011;34426;52.180;4.462;2022-09-09T01:12:28;26.00;;;16.25;;
48629;SDS011;34426;52.180;4.462;2022-09-09T01:15:08;27.10;;;14.43;;
48629;SDS011;34426;52.180;4.462;2022-09-09T01:17:41;28.52;;;16.13;;
48629;SDS011;34426;52.180;4.462;2022-09-09T01:20:25;25.50;;;14.95;;
48629;SDS011;34426;52.180;4.462;2022-09-09T01:23:00;21.48;;;14.60;;
48629;SDS011;34426;52.180;4.462;2022-09-09T01:26:02;31.20;;;13.85;;
48629;SDS011;34426;52.180;4.462;2022-09-09T01:28:37;19.55;;;11.85;;
48629;SDS011;34426;52.180;4.462;2022-09-09T01:31:05;20.17;;;12.40;;
48629;SDS011;34426;52.180;4.462;2022-09-09T01:33:34;22.42;;;11.35;;
48629;SDS011;34426;52.180;4.462;2022-09-09T01:36:02;22.55;;;11.93;;
48629;SDS011;34426;52.180;4.462;2022-09-09T01:38:33;18.13;;;11.65;;
48629;SDS011;34426;52.180;4.462;2022-09-09T01:41:04;20.70;;;11.48;;
48629;SDS011;34426;52.180;4.462;2022-09-09T01:43:31;20.15;;;12.25;;
48629;SDS011;34426;52.180;4.462;2022-09-09T01:45:59;23.00;;;11.35;;
48629;SDS011;34426;52.180;4.462;2022-09-09T01:48:28;21.67;;;13.23;;
48629;SDS011;34426;52.180;4.462;2022-09-09T01:50:55;21.88;;;12.18;;
48629;SDS011;34426;52.180;4.462;2022-09-09T01:53:23;62.53;;;47.53;;
48629;SDS011;34426;52.180;4.462;2022-09-09T01:55:53;112.95;;;100.68;;
48629;SDS011;34426;52.180;4.462;2022-09-09T01:58:32;59.22;;;52.83;;
48629;SDS011;34426;52.180;4.462;2022-09-09T02:01:10;48.95;;;43.33;;
48629;SDS011;34426;52.180;4.462;2022-09-09T02:03:51;24.67;;;18.85;;
48629;SDS011;34426;52.180;4.462;2022-09-09T02:06:25;22.40;;;14.15;;
48629;SDS011;34426;52.180;4.462;2022-09-09T02:08:56;22.67;;;16.35;;
48629;SDS011;34426;52.180;4.462;2022-09-09T02:11:27;21.73;;;14.93;;
48629;SDS011;34426;52.180;4.462;2022-09-09T02:14:00;19.40;;;13.75;;
48629;SDS011;34426;52.180;4.462;2022-09-09T02:16:32;28.27;;;14.55;;
48629;SDS011;34426;52.180;4.462;2022-09-09T02:19:06;30.80;;;16.17;;
48629;SDS011;34426;52.180;4.462;2022-09-09T02:21:36;25.27;;;15.02;;
48629;SDS011;34426;52.180;4.462;2022-09-09T02:24:06;21.70;;;14.98;;
48629;SDS011;34426;52.180;4.462;2022-09-09T02:26:37;23.02;;;14.75;;
48629;SDS011;34426;52.180;4.462;2022-09-09T02:29:11;28.73;;;15.57;;
48629;SDS011;34426;52.180;4.462;2022-09-09T02:31:42;28.27;;;15.73;;
48629;SDS011;34426;52.180;4.462;2022-09-09T02:34:12;21.40;;;14.50;;
48629;SDS011;34426;52.180;4.462;2022-09-09T02:36:43;27.48;;;15.18;;
48629;SDS011;34426;52.180;4.462;2022-09-09T02:39:13;50.38;;;40.67;;
48629;SDS011;34426;52.180;4.462;2022-09-09T02:41:41;27.73;;;19.50;;
48629;SDS011;34426;52.180;4.462;2022-09-09T02:44:12;21.58;;;14.45;;
48629;SDS011;34426;52.180;4.462;2022-09-09T02:46:45;23.92;;;14.18;;
48629;SDS011;34426;52.180;4.462;2022-09-09T02:49:28;25.48;;;14.85;;
48629;SDS011;34426;52.180;4.462;2022-09-09T02:52:04;20.98;;;14.48;;
48629;SDS011;34426;52.180;4.462;2022-09-09T02:54:33;22.10;;;13.05;;
48629;SDS011;34426;52.180;4.462;2022-09-09T02:57:04;21.88;;;14.32;;
48629;SDS011;34426;52.180;4.462;2022-09-09T02:59:38;22.92;;;14.48;;
48629;SDS011;34426;52.180;4.462;2022-09-09T03:02:05;20.52;;;11.38;;
48629;SDS011;34426;52.180;4.462;2022-09-09T03:04:33;20.00;;;11.85;;
48629;SDS011;34426;52.180;4.462;2022-09-09T03:07:00;24.35;;;11.52;;
48629;SDS011;34426;52.180;4.462;2022-09-09T03:09:28;19.25;;;11.57;;
48629;SDS011;34426;52.180;4.462;2022-09-09T03:11:55;21.02;;;10.82;;
48629;SDS011;34426;52.180;4.462;2022-09-09T03:14:23;17.90;;;10.15;;
48629;SDS011;34426;52.180;4.462;2022-09-09T03:16:52;22.92;;;11.15;;
48629;SDS011;34426;52.180;4.462;2022-09-09T03:19:20;14.25;;;8.57;;
48629;SDS011;34426;52.180;4.462;2022-09-09T03:21:48;18.58;;;9.27;;
48629;SDS011;34426;52.180;4.462;2022-09-09T03:24:15;15.68;;;8.90;;
48629;SDS011;34426;52.180;4.462;2022-09-09T03:26:42;14.98;;;8.77;;
48629;SDS011;34426;52.180;4.462;2022-09-09T03:29:10;14.50;;;8.20;;
48629;SDS011;34426;52.180;4.462;2022-09-09T03:31:38;15.30;;;7.78;;
48629;SDS011;34426;52.180;4.462;2022-09-09T03:34:07;13.45;;;7.38;;
48629;SDS011;34426;52.180;4.462;2022-09-09T03:36:34;12.10;;;6.80;;
48629;SDS011;34426;52.180;4.462;2022-09-09T03:39:02;13.88;;;7.22;;
48629;SDS011;34426;52.180;4.462;2022-09-09T03:41:30;20.77;;;7.32;;
48629;SDS011;34426;52.180;4.462;2022-09-09T03:43:57;12.45;;;6.32;;
48629;SDS011;34426;52.180;4.462;2022-09-09T03:46:25;14.38;;;6.05;;
48629;SDS011;34426;52.180;4.462;2022-09-09T03:48:53;17.02;;;6.85;;
48629;SDS011;34426;52.180;4.462;2022-09-09T03:51:22;13.15;;;6.38;;
48629;SDS011;34426;52.180;4.462;2022-09-09T03:53:50;15.77;;;5.90;;
48629;SDS011;34426;52.180;4.462;2022-09-09T03:56:17;15.20;;;6.13;;
48629;SDS011;34426;52.180;4.462;2022-09-09T03:58:45;12.13;;;6.35;;
48629;SDS011;34426;52.180;4.462;2022-09-09T04:01:13;15.73;;;6.32;;
48629;SDS011;34426;52.180;4.462;2022-09-09T04:03:41;17.00;;;6.57;;
48629;SDS011;34426;52.180;4.462;2022-09-09T04:06:09;15.05;;;6.10;;
48629;SDS011;34426;52.180;4.462;2022-09-09T04:08:39;16.00;;;5.85;;
48629;SDS011;34426;52.180;4.462;2022-09-09T04:11:07;13.23;;;5.95;;
48629;SDS011;34426;52.180;4.462;2022-09-09T04:13:35;12.45;;;5.68;;
48629;SDS011;34426;52.180;4.462;2022-09-09T04:16:03;22.02;;;6.70;;
48629;SDS011;34426;52.180;4.462;2022-09-09T04:18:31;13.48;;;6.85;;
48629;SDS011;34426;52.180;4.462;2022-09-09T04:20:59;18.33;;;6.35;;
48629;SDS011;34426;52.180;4.462;2022-09-09T04:23:27;17.42;;;7.93;;
48629;SDS011;34426;52.180;4.462;2022-09-09T04:25:57;17.13;;;7.55;;
48629;SDS011;34426;52.180;4.462;2022-09-09T04:28:26;17.40;;;6.68;;
48629;SDS011;34426;52.180;4.462;2022-09-09T04:30:54;16.98;;;7.13;;
48629;SDS011;34426;52.180;4.462;2022-09-09T04:33:23;14.35;;;6.90;;
48629;SDS011;34426;52.180;4.462;2022-09-09T04:35:50;16.27;;;7.05;;
48629;SDS011;34426;52.180;4.462;2022-09-09T04:38:18;18.85;;;7.80;;
48629;SDS011;34426;52.180;4.462;2022-09-09T04:40:46;14.55;;;7.03;;
48629;SDS011;34426;52.180;4.462;2022-09-09T04:43:16;18.48;;;7.38;;
48629;SDS011;34426;52.180;4.462;2022-09-09T04:45:46;21.95;;;7.30;;
48629;SDS011;34426;52.180;4.462;2022-09-09T04:48:14;18.15;;;7.28;;
48629;SDS011;34426;52.180;4.462;2022-09-09T04:50:41;17.35;;;7.05;;
48629;SDS011;34426;52.180;4.462;2022-09-09T04:53:08;18.80;;;6.68;;
48629;SDS011;34426;52.180;4.462;2022-09-09T04:55:36;15.25;;;6.57;;
48629;SDS011;34426;52.180;4.462;2022-09-09T04:58:04;16.10;;;6.10;;
48629;SDS011;34426;52.180;4.462;2022-09-09T05:00:34;17.30;;;7.13;;
48629;SDS011;34426;52.180;4.462;2022-09-09T05:03:02;22.27;;;6.82;;
48629;SDS011;34426;52.180;4.462;2022-09-09T05:05:30;19.73;;;6.85;;
48629;SDS011;34426;52.180;4.462;2022-09-09T05:08:00;14.18;;;6.20;;
48629;SDS011;34426;52.180;4.462;2022-09-09T05:10:28;14.38;;;5.85;;
48629;SDS011;34426;52.180;4.462;2022-09-09T05:12:55;14.35;;;5.68;;
48629;SDS011;34426;52.180;4.462;2022-09-09T05:15:23;22.23;;;6.00;;
48629;SDS011;34426;52.180;4.462;2022-09-09T05:17:52;21.60;;;6.82;;
48629;SDS011;34426;52.180;4.462;2022-09-09T05:20:23;14.68;;;5.50;;
48629;SDS011;34426;52.180;4.462;2022-09-09T05:22:52;17.60;;;6.85;;
48629;SDS011;34426;52.180;4.462;2022-09-09T05:25:20;22.35;;;6.25;;
48629;SDS011;34426;52.180;4.462;2022-09-09T05:27:47;19.73;;;5.60;;
48629;SDS011;34426;52.180;4.462;2022-09-09T05:30:14;16.40;;;5.82;;
48629;SDS011;34426;52.180;4.462;2022-09-09T05:32:41;16.35;;;5.20;;
48629;SDS011;34426;52.180;4.462;2022-09-09T05:35:10;18.98;;;6.30;;
48629;SDS011;34426;52.180;4.462;2022-09-09T05:37:38;24.45;;;5.22;;
48629;SDS011;34426;52.180;4.462;2022-09-09T05:40:05;14.40;;;4.60;;
48629;SDS011;34426;52.180;4.462;2022-09-09T05:42:33;12.18;;;4.70;;
48629;SDS011;34426;52.180;4.462;2022-09-09T05:45:00;14.18;;;4.13;;
48629;SDS011;34426;52.180;4.462;2022-09-09T05:47:27;10.57;;;4.32;;
48629;SDS011;34426;52.180;4.462;2022-09-09T05:49:55;19.60;;;4.95;;
48629;SDS011;34426;52.180;4.462;2022-09-09T05:52:24;17.48;;;4.60;;
48629;SDS011;34426;52.180;4.462;2022-09-09T05:54:51;22.38;;;4.45;;
48629;SDS011;34426;52.180;4.462;2022-09-09T05:57:20;11.75;;;4.82;;
48629;SDS011;34426;52.180;4.462;2022-09-09T05:59:47;13.45;;;4.13;;
48629;SDS011;34426;52.180;4.462;2022-09-09T06:02:14;15.30;;;4.40;;
48629;SDS011;34426;52.180;4.462;2022-09-09T06:04:41;16.20;;;4.05;;
48629;SDS011;34426;52.180;4.462;2022-09-09T06:07:08;13.18;;;4.25;;
48629;SDS011;34426;52.180;4.462;2022-09-09T06:09:38;21.30;;;4.30;;
48629;SDS011;34426;52.180;4.462;2022-09-09T06:12:05;8.57;;;3.70;;
48629;SDS011;34426;52.180;4.462;2022-09-09T06:14:33;17.20;;;4.30;;
48629;SDS011;34426;52.180;4.462;2022-09-09T06:17:01;14.63;;;4.15;;
48629;SDS011;34426;52.180;4.462;2022-09-09T06:19:29;15.50;;;3.38;;
48629;SDS011;34426;52.180;4.462;2022-09-09T06:21:56;14.07;;;3.20;;
48629;SDS011;34426;52.180;4.462;2022-09-09T06:24:24;12.52;;;3.90;;
48629;SDS011;34426;52.180;4.462;2022-09-09T06:26:53;18.73;;;3.70;;
48629;SDS011;34426;52.180;4.462;2022-09-09T06:29:20;15.77;;;3.33;;
48629;SDS011;34426;52.180;4.462;2022-09-09T06:31:48;19.73;;;3.47;;
48629;SDS011;34426;52.180;4.462;2022-09-09T06:34:15;15.05;;;4.00;;
48629;SDS011;34426;52.180;4.462;2022-09-09T06:36:43;14.60;;;4.50;;
48629;SDS011;34426;52.180;4.462;2022-09-09T06:39:10;17.38;;;3.78;;
48629;SDS011;34426;52.180;4.462;2022-09-09T06:41:37;16.30;;;4.07;;
48629;SDS011;34426;52.180;4.462;2022-09-09T06:44:07;16.15;;;3.75;;
48629;SDS011;34426;52.180;4.462;2022-09-09T06:46:34;21.45;;;4.30;;
48629;SDS011;34426;52.180;4.462;2022-09-09T06:49:01;16.48;;;3.85;;
48629;SDS011;34426;52.180;4.462;2022-09-09T06:51:29;16.48;;;4.50;;
48629;SDS011;34426;52.180;4.462;2022-09-09T06:53:58;18.60;;;4.50;;
48629;SDS011;34426;52.180;4.462;2022-09-09T06:56:26;20.70;;;5.35;;
48629;SDS011;34426;52.180;4.462;2022-09-09T06:58:54;21.67;;;4.20;;
48629;SDS011;34426;52.180;4.462;2022-09-09T07:01:26;23.90;;;4.47;;
48629;SDS011;34426;52.180;4.462;2022-09-09T07:03:54;19.38;;;4.65;;
48629;SDS011;34426;52.180;4.462;2022-09-09T07:06:22;17.20;;;4.50;;
48629;SDS011;34426;52.180;4.462;2022-09-09T07:08:51;16.60;;;4.38;;
48629;SDS011;34426;52.180;4.462;2022-09-09T07:11:20;26.92;;;5.40;;
48629;SDS011;34426;52.180;4.462;2022-09-09T07:13:48;14.00;;;3.88;;
48629;SDS011;34426;52.180;4.462;2022-09-09T07:16:16;13.68;;;4.28;;
48629;SDS011;34426;52.180;4.462;2022-09-09T07:18:46;15.60;;;3.72;;
48629;SDS011;34426;52.180;4.462;2022-09-09T07:21:14;17.55;;;4.30;;
48629;SDS011;34426;52.180;4.462;2022-09-09T07:23:41;26.08;;;4.68;;
48629;SDS011;34426;52.180;4.462;2022-09-09T07:26:09;15.07;;;4.20;;
48629;SDS011;34426;52.180;4.462;2022-09-09T07:28:38;17.83;;;4.05;;
48629;SDS011;34426;52.180;4.462;2022-09-09T07:31:07;15.52;;;4.00;;
48629;SDS011;34426;52.180;4.462;2022-09-09T07:33:39;19.65;;;4.60;;
48629;SDS011;34426;52.180;4.462;2022-09-09T07:36:09;22.30;;;4.38;;
48629;SDS011;34426;52.180;4.462;2022-09-09T07:38:39;20.75;;;4.60;;
48629;SDS011;34426;52.180;4.462;2022-09-09T07:41:06;15.30;;;3.63;;
48629;SDS011;34426;52.180;4.462;2022-09-09T07:43:33;20.42;;;4.03;;
48629;SDS011;34426;52.180;4.462;2022-09-09T07:46:00;15.82;;;3.92;;
48629;SDS011;34426;52.180;4.462;2022-09-09T07:48:25;17.40;;;4.60;;
48629;SDS011;34426;52.180;4.462;2022-09-09T07:50:51;17.48;;;4.28;;
48629;SDS011;34426;52.180;4.462;2022-09-09T07:53:18;12.82;;;4.07;;
48629;SDS011;34426;52.180;4.462;2022-09-09T07:55:43;16.77;;;3.83;;
48629;SDS011;34426;52.180;4.462;2022-09-09T07:58:09;23.58;;;4.53;;
48629;SDS011;34426;52.180;4.462;2022-09-09T08:00:37;17.67;;;4.43;;
48629;SDS011;34426;52.180;4.462;2022-09-09T08:03:05;18.45;;;4.97;;
48629;SDS011;34426;52.180;4.462;2022-09-09T08:05:32;15.75;;;4.43;;
48629;SDS011;34426;52.180;4.462;2022-09-09T08:08:00;18.17;;;4.28;;
48629;SDS011;34426;52.180;4.462;2022-09-09T08:10:29;14.52;;;3.78;;
48629;SDS011;34426;52.180;4.462;2022-09-09T08:12:57;14.00;;;3.80;;
48629;SDS011;34426;52.180;4.462;2022-09-09T08:15:25;14.85;;;3.97;;
48629;SDS011;34426;52.180;4.462;2022-09-09T08:17:52;13.63;;;3.65;;
48629;SDS011;34426;52.180;4.462;2022-09-09T08:20:20;17.45;;;3.58;;
48629;SDS011;34426;52.180;4.462;2022-09-09T08:22:47;15.07;;;3.85;;
48629;SDS011;34426;52.180;4.462;2022-09-09T08:25:14;12.07;;;3.03;;
48629;SDS011;34426;52.180;4.462;2022-09-09T08:27:44;25.73;;;3.88;;
48629;SDS011;34426;52.180;4.462;2022-09-09T08:30:11;13.80;;;3.38;;
48629;SDS011;34426;52.180;4.462;2022-09-09T08:32:39;15.95;;;3.72;;
48629;SDS011;34426;52.180;4.462;2022-09-09T08:35:07;10.93;;;2.78;;
48629;SDS011;34426;52.180;4.462;2022-09-09T08:37:35;10.13;;;2.95;;
48629;SDS011;34426;52.180;4.462;2022-09-09T08:40:03;16.77;;;3.35;;
48629;SDS011;34426;52.180;4.462;2022-09-09T08:42:33;14.10;;;3.25;;
48629;SDS011;34426;52.180;4.462;2022-09-09T08:45:14;17.17;;;3.05;;
48629;SDS011;34426;52.180;4.462;2022-09-09T08:47:54;14.93;;;3.28;;
48629;SDS011;34426;52.180;4.462;2022-09-09T08:50:30;12.43;;;3.17;;
48629;SDS011;34426;52.180;4.462;2022-09-09T08:53:01;11.50;;;3.20;;
48629;SDS011;34426;52.180;4.462;2022-09-09T08:55:34;14.13;;;3.20;;
48629;SDS011;34426;52.180;4.462;2022-09-09T08:58:09;12.70;;;2.83;;
48629;SDS011;34426;52.180;4.462;2022-09-09T09:00:42;16.30;;;3.75;;
48629;SDS011;34426;52.180;4.462;2022-09-09T09:03:22;23.00;;;3.20;;
48629;SDS011;34426;52.180;4.462;2022-09-09T09:05:58;16.55;;;3.22;;
48629;SDS011;34426;52.180;4.462;2022-09-09T09:08:35;14.60;;;3.35;;
48629;SDS011;34426;52.180;4.462;2022-09-09T09:11:07;16.00;;;3.08;;
48629;SDS011;34426;52.180;4.462;2022-09-09T09:13:34;15.98;;;4.28;;
48629;SDS011;34426;52.180;4.462;2022-09-09T09:16:13;17.23;;;3.03;;
48629;SDS011;34426;52.180;4.462;2022-09-09T09:18:47;13.23;;;3.03;;
48629;SDS011;34426;52.180;4.462;2022-09-09T09:21:15;12.77;;;3.17;;
48629;SDS011;34426;52.180;4.462;2022-09-09T09:23:48;15.95;;;3.35;;
48629;SDS011;34426;52.180;4.462;2022-09-09T09:26:22;19.30;;;3.45;;
48629;SDS011;34426;52.180;4.462;2022-09-09T09:28:51;17.45;;;3.20;;
48629;SDS011;34426;52.180;4.462;2022-09-09T09:31:23;11.75;;;2.88;;
48629;SDS011;34426;52.180;4.462;2022-09-09T09:33:51;21.13;;;3.53;;
48629;SDS011;34426;52.180;4.462;2022-09-09T09:36:19;14.15;;;3.40;;
48629;SDS011;34426;52.180;4.462;2022-09-09T09:38:53;10.52;;;3.00;;
48629;SDS011;34426;52.180;4.462;2022-09-09T09:41:34;14.35;;;3.35;;
48629;SDS011;34426;52.180;4.462;2022-09-09T09:44:04;20.00;;;3.70;;
48629;SDS011;34426;52.180;4.462;2022-09-09T09:46:33;12.45;;;2.90;;
48629;SDS011;34426;52.180;4.462;2022-09-09T09:49:02;16.60;;;3.60;;
48629;SDS011;34426;52.180;4.462;2022-09-09T09:51:30;18.33;;;3.50;;
48629;SDS011;34426;52.180;4.462;2022-09-09T09:54:07;22.77;;;4.05;;
48629;SDS011;34426;52.180;4.462;2022-09-09T09:56:41;20.50;;;3.47;;
48629;SDS011;34426;52.180;4.462;2022-09-09T09:59:19;17.42;;;3.28;;
48629;SDS011;34426;52.180;4.462;2022-09-09T10:02:10;15.80;;;3.15;;
48629;SDS011;34426;52.180;4.462;2022-09-09T10:04:41;14.80;;;3.15;;
48629;SDS011;34426;52.180;4.462;2022-09-09T10:07:12;15.73;;;3.28;;
48629;SDS011;34426;52.180;4.462;2022-09-09T10:09:43;14.55;;;3.13;;
48629;SDS011;34426;52.180;4.462;2022-09-09T10:12:14;16.40;;;3.47;;
48629;SDS011;34426;52.180;4.462;2022-09-09T10:14:57;15.13;;;2.95;;
48629;SDS011;34426;52.180;4.462;2022-09-09T10:17:30;14.13;;;3.30;;
48629;SDS011;34426;52.180;4.462;2022-09-09T10:20:10;15.20;;;3.38;;
48629;SDS011;34426;52.180;4.462;2022-09-09T10:22:47;12.90;;;3.28;;
48629;SDS011;34426;52.180;4.462;2022-09-09T10:25:20;13.70;;;3.42;;
48629;SDS011;34426;52.180;4.462;2022-09-09T10:28:04;20.70;;;3.55;;
48629;SDS011;34426;52.180;4.462;2022-09-09T10:30:53;14.68;;;3.60;;
48629;SDS011;34426;52.180;4.462;2022-09-09T10:33:32;18.00;;;3.83;;
48629;SDS011;34426;52.180;4.462;2022-09-09T10:36:12;14.25;;;3.53;;
48629;SDS011;34426;52.180;4.462;2022-09-09T10:41:16;14.45;;;4.05;;
48629;SDS011;34426;52.180;4.462;2022-09-09T10:43:53;12.32;;;2.97;;
48629;SDS011;34426;52.180;4.462;2022-09-09T10:46:34;14.68;;;3.80;;
48629;SDS011;34426;52.180;4.462;2022-09-09T10:49:17;14.38;;;3.10;;
48629;SDS011;34426;52.180;4.462;2022-09-09T10:51:54;8.88;;;3.13;;
48629;SDS011;34426;52.180;4.462;2022-09-09T10:54:31;12.10;;;3.28;;
48629;SDS011;34426;52.180;4.462;2022-09-09T10:57:11;14.60;;;3.03;;
48629;SDS011;34426;52.180;4.462;2022-09-09T10:59:44;14.27;;;3.80;;
48629;SDS011;34426;52.180;4.462;2022-09-09T11:02:16;13.18;;;3.20;;
48629;SDS011;34426;52.180;4.462;2022-09-09T11:04:58;11.77;;;3.17;;
48629;SDS011;34426;52.180;4.462;2022-09-09T11:07:33;12.25;;;3.15;;
48629;SDS011;34426;52.180;4.462;2022-09-09T11:10:07;8.73;;;2.85;;
48629;SDS011;34426;52.180;4.462;2022-09-09T11:12:45;15.70;;;3.45;;
48629;SDS011;34426;52.180;4.462;2022-09-09T11:15:15;15.25;;;3.15;;
48629;SDS011;34426;52.180;4.462;2022-09-09T11:17:46;7.03;;;2.28;;
48629;SDS011;34426;52.180;4.462;2022-09-09T11:20:18;9.40;;;2.80;;
48629;SDS011;34426;52.180;4.462;2022-09-09T11:22:47;11.80;;;3.03;;
48629;SDS011;34426;52.180;4.462;2022-09-09T11:25:18;10.38;;;2.60;;
48629;SDS011;34426;52.180;4.462;2022-09-09T11:27:56;8.77;;;2.08;;
48629;SDS011;34426;52.180;4.462;2022-09-09T11:30:50;9.98;;;2.40;;
48629;SDS011;34426;52.180;4.462;2022-09-09T11:42:24;8.95;;;2.47;;
48629;SDS011;34426;52.180;4.462;2022-09-09T11:44:52;7.28;;;2.30;;
48629;SDS011;34426;52.180;4.462;2022-09-09T11:47:21;14.57;;;2.90;;
48629;SDS011;34426;52.180;4.462;2022-09-09T11:49:50;11.20;;;2.70;;
48629;SDS011;34426;52.180;4.462;2022-09-09T11:52:21;12.13;;;2.42;;
48629;SDS011;34426;52.180;4.462;2022-09-09T11:54:52;9.65;;;2.65;;
48629;SDS011;34426;52.180;4.462;2022-09-09T11:57:25;11.13;;;2.73;;
48629;SDS011;34426;52.180;4.462;2022-09-09T11:59:56;8.75;;;2.75;;
48629;SDS011;34426;52.180;4.462;2022-09-09T12:02:25;10.00;;;2.65;;
48629;SDS011;34426;52.180;4.462;2022-09-09T12:04:58;12.23;;;2.50;;
48629;SDS011;34426;52.180;4.462;2022-09-09T12:07:32;10.82;;;3.38;;
48629;SDS011;34426;52.180;4.462;2022-09-09T12:10:17;11.30;;;2.72;;
48629;SDS011;34426;52.180;4.462;2022-09-09T12:12:49;10.23;;;3.00;;
48629;SDS011;34426;52.180;4.462;2022-09-09T12:15:18;11.13;;;2.95;;
48629;SDS011;34426;52.180;4.462;2022-09-09T12:17:50;13.00;;;3.15;;
48629;SDS011;34426;52.180;4.462;2022-09-09T12:20:19;10.73;;;3.42;;
48629;SDS011;34426;52.180;4.462;2022-09-09T12:28:39;10.48;;;2.70;;
48629;SDS011;34426;52.180;4.462;2022-09-09T12:31:19;7.78;;;2.10;;
48629;SDS011;34426;52.180;4.462;2022-09-09T12:33:52;7.00;;;1.80;;
48629;SDS011;34426;52.180;4.462;2022-09-09T12:36:21;6.90;;;1.88;;
48629;SDS011;34426;52.180;4.462;2022-09-09T12:38:51;11.00;;;2.60;;
48629;SDS011;34426;52.180;4.462;2022-09-09T12:41:21;7.57;;;2.35;;
48629;SDS011;34426;52.180;4.462;2022-09-09T12:43:48;9.05;;;2.20;;
48629;SDS011;34426;52.180;4.462;2022-09-09T12:46:20;8.23;;;2.20;;
48629;SDS011;34426;52.180;4.462;2022-09-09T12:48:52;7.32;;;1.90;;
48629;SDS011;34426;52.180;4.462;2022-09-09T12:51:23;5.20;;;1.67;;
48629;SDS011;34426;52.180;4.462;2022-09-09T12:53:54;5.90;;;1.75;;
48629;SDS011;34426;52.180;4.462;2022-09-09T12:56:25;7.65;;;2.28;;
48629;SDS011;34426;52.180;4.462;2022-09-09T12:58:54;10.33;;;2.33;;
48629;SDS011;34426;52.180;4.462;2022-09-09T13:01:24;6.22;;;2.08;;
48629;SDS011;34426;52.180;4.462;2022-09-09T13:03:52;9.45;;;2.33;;
48629;SDS011;34426;52.180;4.462;2022-09-09T13:06:22;8.43;;;2.05;;
48629;SDS011;34426;52.180;4.462;2022-09-09T13:08:50;11.80;;;2.65;;
48629;SDS011;34426;52.180;4.462;2022-09-09T13:11:19;7.65;;;1.77;;
48629;SDS011;34426;52.180;4.462;2022-09-09T13:13:53;8.50;;;1.98;;
48629;SDS011;34426;52.180;4.462;2022-09-09T13:16:22;5.47;;;1.30;;
48629;SDS011;34426;52.180;4.462;2022-09-09T13:18:52;4.55;;;1.63;;
48629;SDS011;34426;52.180;4.462;2022-09-09T13:21:29;4.68;;;1.40;;
48629;SDS011;34426;52.180;4.462;2022-09-09T13:23:58;4.00;;;1.27;;
48629;SDS011;34426;52.180;4.462;2022-09-09T13:26:26;8.98;;;1.10;;
48629;SDS011;34426;52.180;4.462;2022-09-09T13:28:55;5.78;;;1.52;;
48629;SDS011;34426;52.180;4.462;2022-09-09T13:31:40;5.85;;;1.50;;
48629;SDS011;34426;52.180;4.462;2022-09-09T13:34:11;3.90;;;1.20;;
48629;SDS011;34426;52.180;4.462;2022-09-09T13:36:38;5.32;;;1.70;;
48629;SDS011;34426;52.180;4.462;2022-09-09T13:39:13;3.83;;;1.15;;
48629;SDS011;34426;52.180;4.462;2022-09-09T13:41:43;10.48;;;1.60;;
48629;SDS011;34426;52.180;4.462;2022-09-09T13:44:17;7.65;;;1.70;;
48629;SDS011;34426;52.180;4.462;2022-09-09T13:46:46;6.28;;;1.25;;
48629;SDS011;34426;52.180;4.462;2022-09-09T13:49:20;8.15;;;1.80;;
48629;SDS011;34426;52.180;4.462;2022-09-09T13:51:49;6.53;;;1.42;;
48629;SDS011;34426;52.180;4.462;2022-09-09T13:54:17;9.57;;;1.90;;
48629;SDS011;34426;52.180;4.462;2022-09-09T13:56:46;5.28;;;1.58;;
48629;SDS011;34426;52.180;4.462;2022-09-09T13:59:14;6.45;;;1.77;;
48629;SDS011;34426;52.180;4.462;2022-09-09T14:01:45;7.13;;;1.40;;
48629;SDS011;34426;52.180;4.462;2022-09-09T14:04:13;5.10;;;1.10;;
48629;SDS011;34426;52.180;4.462;2022-09-09T14:06:39;5.22;;;0.98;;
48629;SDS011;34426;52.180;4.462;2022-09-09T14:09:06;6.95;;;1.65;;
48629;SDS011;34426;52.180;4.462;2022-09-09T14:11:34;3.85;;;1.70;;
48629;SDS011;34426;52.180;4.462;2022-09-09T14:14:01;5.10;;;1.00;;
48629;SDS011;34426;52.180;4.462;2022-09-09T14:16:31;6.30;;;1.63;;
48629;SDS011;34426;52.180;4.462;2022-09-09T14:18:59;6.63;;;1.20;;
48629;SDS011;34426;52.180;4.462;2022-09-09T14:21:27;5.60;;;1.17;;
48629;SDS011;34426;52.180;4.462;2022-09-09T14:23:54;8.15;;;1.33;;
48629;SDS011;34426;52.180;4.462;2022-09-09T14:26:23;8.38;;;1.30;;
48629;SDS011;34426;52.180;4.462;2022-09-09T14:28:51;4.47;;;1.20;;
48629;SDS011;34426;52.180;4.462;2022-09-09T14:31:18;5.90;;;1.60;;
48629;SDS011;34426;52.180;4.462;2022-09-09T14:33:50;6.28;;;1.58;;
48629;SDS011;34426;52.180;4.462;2022-09-09T14:36:18;7.90;;;1.55;;
48629;SDS011;34426;52.180;4.462;2022-09-09T14:38:44;11.43;;;1.95;;
48629;SDS011;34426;52.180;4.462;2022-09-09T14:41:11;10.27;;;2.53;;
48629;SDS011;34426;52.180;4.462;2022-09-09T14:43:39;9.20;;;2.08;;
48629;SDS011;34426;52.180;4.462;2022-09-09T14:46:07;14.65;;;2.63;;
48629;SDS011;34426;52.180;4.462;2022-09-09T14:48:35;12.38;;;2.20;;
48629;SDS011;34426;52.180;4.462;2022-09-09T14:51:08;14.35;;;2.95;;
48629;SDS011;34426;52.180;4.462;2022-09-09T14:53:37;9.18;;;2.17;;
48629;SDS011;34426;52.180;4.462;2022-09-09T14:56:06;9.07;;;1.92;;
48629;SDS011;34426;52.180;4.462;2022-09-09T14:58:35;17.90;;;3.80;;
48629;SDS011;34426;52.180;4.462;2022-09-09T15:01:03;23.33;;;4.50;;
48629;SDS011;34426;52.180;4.462;2022-09-09T15:03:31;49.30;;;4.93;;
48629;SDS011;34426;52.180;4.462;2022-09-09T15:06:04;27.60;;;4.07;;
48629;SDS011;34426;52.180;4.462;2022-09-09T15:08:35;13.77;;;2.85;;
48629;SDS011;34426;52.180;4.462;2022-09-09T15:11:02;11.13;;;2.63;;
48629;SDS011;34426;52.180;4.462;2022-09-09T15:13:31;34.60;;;5.60;;
48629;SDS011;34426;52.180;4.462;2022-09-09T15:16:03;22.20;;;4.55;;
48629;SDS011;34426;52.180;4.462;2022-09-09T15:18:31;23.90;;;4.85;;